Time;durP1;ratioP1;P1;durP2;ratioP2;P2;SDS_P1;SDS_P2;PMS_P1;PMS_P2;Temp;Humidity;BMP_temperature;BMP_pressure;BME280_temperature;BME280_humidity;BME280_pressure;Samples;Min_cycle;Max_cycle;Signal;HPM_P1;HPM_P2
2024/01/06 00:00:15;;;;;;;1.20;1.20;;;;;;;3.44;82.05;96243.72;4972339;28;20047;-72
2024/01/06 00:02:42;;;;;;;1.10;1.10;;;;;;;3.18;82.22;96250.31;4974305;28;20034;-73
2024/01/06 00:05:10;;;;;;;0.28;0.28;;;;;;;3.04;82.83;96261.66;4967753;28;20130;-73
2024/01/06 00:07:38;;;;;;;1.10;1.10;;;;;;;2.87;83.38;96247.84;4973335;28;20046;-73
2024/01/06 00:10:08;;;;;;;0.93;0.93;;;;;;;2.95;82.74;96245.13;4974698;28;20042;-73
2024/01/06 00:12:36;;;;;;;0.98;0.98;;;;;;;2.88;83.61;96246.84;4973430;28;20118;-73
2024/01/06 00:15:05;;;;;;;0.93;0.93;;;;;;;2.87;83.91;96247.84;4974704;28;20502;-73
2024/01/06 00:17:32;;;;;;;1.08;1.08;;;;;;;2.95;83.56;96254.84;4973480;28;20495;-73
2024/01/06 00:20:02;;;;;;;0.98;0.98;;;;;;;2.87;83.37;96249.66;4994492;28;20078;-73
2024/01/06 00:22:30;;;;;;;1.02;1.02;;;;;;;2.85;82.81;96246.38;4984312;28;20070;-72
2024/01/06 00:24:57;;;;;;;1.15;1.15;;;;;;;2.80;83.30;96243.47;4996858;28;20054;-73
2024/01/06 00:27:26;;;;;;;1.10;1.10;;;;;;;2.88;83.18;96238.94;4977221;28;20058;-74
2024/01/06 00:29:54;;;;;;;0.20;0.20;;;;;;;2.90;83.24;96251.94;4991420;28;20141;-74
2024/01/06 00:32:22;;;;;;;1.00;1.00;;;;;;;2.93;82.77;96254.19;4990833;28;20042;-73
2024/01/06 00:34:49;;;;;;;0.70;0.70;;;;;;;2.74;82.96;96258.16;4983207;28;20067;-75
2024/01/06 00:37:17;;;;;;;0.80;0.80;;;;;;;2.46;84.08;96257.09;4995586;28;20121;-74
2024/01/06 00:39:45;;;;;;;0.77;0.77;;;;;;;2.45;84.37;96255.47;4990325;28;20056;-74
2024/01/06 00:42:12;;;;;;;1.10;1.10;;;;;;;2.51;83.77;96258.19;4973838;28;20047;-74
2024/01/06 00:44:41;;;;;;;0.80;0.80;;;;;;;2.45;84.49;96258.09;4977333;28;20069;-75
2024/01/06 00:47:09;;;;;;;0.80;0.80;;;;;;;2.54;83.66;96262.31;4977232;28;20043;-75
2024/01/06 00:49:36;;;;;;;1.00;1.00;;;;;;;2.48;84.06;96255.13;4976103;28;20043;-75
2024/01/06 00:52:05;;;;;;;0.98;0.98;;;;;;;2.45;84.06;96253.66;4970643;28;20043;-74
2024/01/06 00:54:32;;;;;;;0.60;0.60;;;;;;;2.40;84.48;96256.00;4972491;28;20054;-74
2024/01/06 00:57:00;;;;;;;1.15;1.15;;;;;;;2.30;84.72;96260.69;4978445;28;20061;-75
2024/01/06 00:59:28;;;;;;;0.70;0.70;;;;;;;2.34;85.15;96261.16;4968373;28;20101;-73
2024/01/06 01:01:57;;;;;;;0.73;0.73;;;;;;;2.39;85.00;96264.88;4975151;28;20410;-74
2024/01/06 01:04:24;;;;;;;1.00;1.00;;;;;;;2.47;84.60;96270.09;4975022;28;20229;-75
2024/01/06 01:06:52;;;;;;;0.95;0.95;;;;;;;2.53;84.28;96269.38;4974878;28;20077;-75
2024/01/06 01:09:19;;;;;;;1.10;1.10;;;;;;;2.55;84.13;96275.28;4975815;28;20130;-75
2024/01/06 01:11:47;;;;;;;0.77;0.77;;;;;;;2.53;84.36;96284.34;4965862;28;20050;-74
2024/01/06 01:14:15;;;;;;;1.35;1.35;;;;;;;2.49;84.21;96286.53;4977451;28;20051;-74
2024/01/06 01:16:42;;;;;;;0.98;0.98;;;;;;;2.46;83.94;96286.91;4970282;28;20043;-74
2024/01/06 01:19:11;;;;;;;0.70;0.70;;;;;;;2.55;84.02;96292.91;4975874;28;20055;-74
2024/01/06 01:21:39;;;;;;;0.30;0.30;;;;;;;2.54;83.69;96292.09;4971002;28;20458;-74
2024/01/06 01:24:07;;;;;;;0.80;0.80;;;;;;;2.56;83.50;96287.47;4972373;28;20100;-75
2024/01/06 01:26:34;;;;;;;1.10;1.10;;;;;;;2.60;83.52;96292.38;4970070;28;20123;-74
2024/01/06 01:29:02;;;;;;;0.70;0.70;;;;;;;2.64;83.10;96297.09;4981883;28;20064;-74
2024/01/06 01:31:29;;;;;;;0.95;0.95;;;;;;;2.63;83.09;96284.94;4966154;28;20054;-74
2024/01/06 01:33:57;;;;;;;0.20;0.20;;;;;;;2.67;82.92;96294.13;4979672;28;20455;-73
2024/01/06 01:36:26;;;;;;;0.30;0.30;;;;;;;2.50;82.75;96293.44;4964214;28;20509;-73
2024/01/06 01:38:54;;;;;;;0.93;0.93;;;;;;;2.39;82.66;96301.72;4966810;28;20051;-73
2024/01/06 01:41:21;;;;;;;0.40;0.40;;;;;;;2.30;83.04;96299.34;4962622;28;20399;-74
2024/01/06 01:43:55;;;;;;;0.80;0.80;;;;;;;2.18;83.16;96299.75;4985992;28;20044;-74
2024/01/06 01:46:23;;;;;;;0.77;0.77;;;;;;;2.04;83.74;96297.06;4978854;28;20054;-75
2024/01/06 01:48:50;;;;;;;0.95;0.95;;;;;;;2.13;83.42;96293.38;4968540;28;20047;-73
2024/01/06 01:51:19;;;;;;;0.70;0.70;;;;;;;2.13;83.61;96288.13;4965278;28;20049;-74
2024/01/06 01:53:48;;;;;;;0.90;0.90;;;;;;;2.19;83.80;96290.03;4969018;28;20043;-74
2024/01/06 01:56:16;;;;;;;0.75;0.75;;;;;;;2.16;84.65;96293.03;4976513;28;20050;-74
2024/01/06 01:58:44;;;;;;;1.33;1.33;;;;;;;2.14;84.47;96295.00;4967819;28;20049;-73
2024/01/06 02:01:11;;;;;;;1.00;1.00;;;;;;;2.17;84.47;96289.41;4979786;28;20045;-74
2024/01/06 02:03:42;;;;;;;0.80;0.80;;;;;;;2.32;83.73;96295.53;4960479;28;20042;-74
2024/01/06 02:06:10;;;;;;;0.73;0.73;;;;;;;2.25;83.58;96299.06;4973034;28;20038;-74
2024/01/06 02:08:37;;;;;;;1.05;1.05;;;;;;;2.26;83.81;96296.25;4972248;28;20043;-73
2024/01/06 02:11:06;;;;;;;1.33;1.33;;;;;;;2.21;83.49;96295.94;4976637;28;20046;-74
2024/01/06 02:13:35;;;;;;;0.88;0.88;;;;;;;2.20;83.50;96297.75;4985246;28;20518;-73
2024/01/06 02:16:04;;;;;;;0.20;0.20;;;;;;;2.20;83.34;96296.94;4970842;28;20391;-74
2024/01/06 02:18:32;;;;;;;1.08;1.08;;;;;;;2.30;83.71;96294.88;4973995;28;20046;-75
2024/01/06 02:21:01;;;;;;;1.05;1.05;;;;;;;2.28;82.91;96296.09;4953346;28;20053;-74
2024/01/06 02:23:30;;;;;;;0.35;0.35;;;;;;;2.41;82.67;96301.56;4971644;28;20387;-74
2024/01/06 02:25:58;;;;;;;0.77;0.77;;;;;;;2.31;82.33;96301.78;4965731;28;20064;-73
2024/01/06 02:28:25;;;;;;;0.93;0.93;;;;;;;2.24;82.70;96307.94;4954796;28;20050;-73
2024/01/06 02:30:53;;;;;;;1.05;1.05;;;;;;;2.24;83.12;96302.69;4968893;28;20051;-76
2024/01/06 02:33:23;;;;;;;0.65;0.65;;;;;;;2.00;83.20;96296.56;4950820;28;20495;-74
2024/01/06 02:35:51;;;;;;;1.05;1.05;;;;;;;2.04;83.33;96295.25;4945902;28;20055;-74
2024/01/06 02:38:19;;;;;;;1.48;1.48;;;;;;;2.08;82.26;96296.50;4950890;28;20053;-75
2024/01/06 02:40:48;;;;;;;1.40;1.40;;;;;;;1.92;82.89;96298.44;4969636;28;20051;-75
2024/01/06 02:43:15;;;;;;;1.08;1.08;;;;;;;1.89;83.40;96302.22;4974153;28;20492;-75
2024/01/06 02:45:43;;;;;;;0.88;0.88;;;;;;;1.86;83.56;96307.03;4971556;28;20043;-75
2024/01/06 02:48:10;;;;;;;1.08;1.08;;;;;;;1.95;83.17;96309.44;4968855;28;20051;-74
2024/01/06 02:50:38;;;;;;;0.43;0.43;;;;;;;1.97;83.10;96312.72;4962185;28;20458;-74
2024/01/06 02:53:06;;;;;;;0.80;0.80;;;;;;;1.95;83.19;96312.06;4979294;28;20053;-74
2024/01/06 02:55:33;;;;;;;1.38;1.38;;;;;;;1.87;83.86;96303.41;4973997;28;20066;-73
2024/01/06 02:58:02;;;;;;;0.85;0.85;;;;;;;1.69;85.14;96306.28;4963222;28;20062;-73
2024/01/06 03:00:30;;;;;;;0.60;0.60;;;;;;;1.72;84.22;96306.75;4957038;28;20494;-74
2024/01/06 03:02:58;;;;;;;1.10;1.10;;;;;;;1.70;84.54;96303.47;4977245;28;20058;-74
2024/01/06 03:05:26;;;;;;;0.43;0.43;;;;;;;1.63;85.22;96313.03;4976043;28;20468;-74
2024/01/06 03:07:53;;;;;;;1.02;1.02;;;;;;;1.64;84.53;96319.13;4966851;28;20118;-73
2024/01/06 03:10:21;;;;;;;0.30;0.30;;;;;;;1.61;85.14;96327.34;4964091;28;20445;-74
2024/01/06 03:12:48;;;;;;;1.20;1.20;;;;;;;1.51;85.56;96326.72;4976920;28;20074;-73
2024/01/06 03:15:17;;;;;;;1.30;1.30;;;;;;;1.45;86.12;96341.38;4976335;28;20128;-73
2024/01/06 03:17:45;;;;;;;0.68;0.68;;;;;;;1.52;85.12;96337.06;4972142;28;20049;-74
2024/01/06 03:20:13;;;;;;;0.98;0.98;;;;;;;1.59;84.73;96330.13;4984644;28;20078;-74
2024/01/06 03:22:40;;;;;;;1.00;1.00;;;;;;;1.58;85.26;96331.13;4983802;28;20042;-74
2024/01/06 03:25:08;;;;;;;0.70;0.70;;;;;;;1.67;85.08;96335.38;4973515;28;20055;-74
2024/01/06 03:27:36;;;;;;;0.77;0.77;;;;;;;1.83;84.50;96339.75;4971895;28;20509;-74
2024/01/06 03:30:05;;;;;;;0.95;0.95;;;;;;;1.67;84.77;96339.81;4978208;28;20054;-74
2024/01/06 03:32:34;;;;;;;1.10;1.10;;;;;;;1.67;84.29;96332.72;4971356;28;20145;-75
2024/01/06 03:35:01;;;;;;;0.30;0.30;;;;;;;1.63;84.10;96336.72;4970664;28;20496;-75
2024/01/06 03:37:29;;;;;;;0.50;0.50;;;;;;;1.64;84.10;96337.53;4972464;28;20038;-73
2024/01/06 03:39:56;;;;;;;0.30;0.30;;;;;;;1.63;84.35;96333.25;4959365;28;20485;-73
2024/01/06 03:42:24;;;;;;;1.15;1.15;;;;;;;1.51;85.07;96340.69;4976208;28;20046;-74
2024/01/06 03:44:51;;;;;;;0.43;0.43;;;;;;;1.44;85.25;96350.25;4991129;28;20159;-74
2024/01/06 03:47:19;;;;;;;0.88;0.88;;;;;;;1.44;85.06;96345.81;4972323;28;20043;-74
2024/01/06 03:49:48;;;;;;;1.20;1.20;;;;;;;1.38;85.40;96350.91;4978095;28;20046;-74
2024/01/06 03:52:16;;;;;;;0.43;0.43;;;;;;;1.51;84.11;96348.59;4976380;28;20468;-74
2024/01/06 03:54:43;;;;;;;0.93;0.93;;;;;;;1.40;85.50;96343.69;4987496;28;20501;-73
2024/01/06 03:57:11;;;;;;;0.95;0.95;;;;;;;1.39;85.56;96342.03;4976448;28;20101;-73
2024/01/06 03:59:38;;;;;;;0.70;0.70;;;;;;;1.45;85.53;96342.16;4979360;28;20070;-76
2024/01/06 04:02:06;;;;;;;0.75;0.75;;;;;;;1.61;85.09;96346.56;4960822;28;20536;-74
2024/01/06 04:04:36;;;;;;;0.98;0.98;;;;;;;1.62;84.86;96340.31;4963972;28;20042;-75
2024/01/06 04:07:06;;;;;;;1.08;1.08;;;;;;;1.69;84.93;96338.66;4970758;28;20038;-73
2024/01/06 04:09:34;;;;;;;1.05;1.05;;;;;;;1.81;84.05;96334.66;4967237;28;20577;-76
2024/01/06 04:12:02;;;;;;;0.13;0.13;;;;;;;1.62;85.24;96335.06;4984261;28;20552;-77
2024/01/06 04:14:29;;;;;;;0.85;0.85;;;;;;;1.52;85.65;96344.97;4953424;28;20089;-76
2024/01/06 04:16:57;;;;;;;1.13;1.13;;;;;;;1.55;85.83;96339.38;4975969;28;20753;-73
2024/01/06 04:19:25;;;;;;;0.75;0.75;;;;;;;1.59;85.72;96340.66;4971792;28;20126;-75
2024/01/06 04:21:52;;;;;;;0.95;0.95;;;;;;;1.68;85.54;96346.69;4982781;28;20047;-76
2024/01/06 04:24:21;;;;;;;0.90;0.90;;;;;;;1.70;85.60;96344.72;4968582;28;20055;-76
2024/01/06 04:26:51;;;;;;;0.98;0.98;;;;;;;1.69;85.96;96345.72;4978792;28;20053;-73
2024/01/06 04:29:18;;;;;;;0.95;0.95;;;;;;;1.66;85.71;96346.06;4978369;28;20034;-75
2024/01/06 04:31:46;;;;;;;1.05;1.05;;;;;;;1.72;85.99;96343.56;4977795;28;20113;-76
2024/01/06 04:34:14;;;;;;;0.93;0.93;;;;;;;1.89;85.42;96346.13;4965574;28;20092;-75
2024/01/06 04:36:41;;;;;;;1.30;1.30;;;;;;;1.86;85.34;96347.31;4977410;28;20063;-74
2024/01/06 04:39:09;;;;;;;0.98;0.98;;;;;;;1.80;85.74;96346.16;4962963;28;20046;-74
2024/01/06 04:41:38;;;;;;;0.88;0.88;;;;;;;1.83;85.44;96348.47;4964743;28;20054;-74
2024/01/06 04:44:06;;;;;;;0.25;0.25;;;;;;;1.86;85.60;96347.31;4957904;28;20057;-74
2024/01/06 04:46:33;;;;;;;0.63;0.63;;;;;;;1.92;85.68;96343.97;4962216;28;20043;-75
2024/01/06 04:49:01;;;;;;;0.90;0.90;;;;;;;1.92;85.85;96345.78;4982101;28;20129;-75
2024/01/06 04:51:29;;;;;;;0.70;0.70;;;;;;;2.02;85.38;96349.03;4968836;28;20116;-73
2024/01/06 04:53:57;;;;;;;1.02;1.02;;;;;;;2.04;84.86;96354.94;4980651;28;20058;-73
2024/01/06 04:56:25;;;;;;;0.90;0.90;;;;;;;1.83;85.94;96353.72;4964239;28;20073;-74
2024/01/06 04:58:54;;;;;;;1.05;1.05;;;;;;;1.69;86.55;96354.41;4981186;28;20054;-73
2024/01/06 05:01:21;;;;;;;1.13;1.13;;;;;;;1.71;86.81;96359.53;4974380;28;20055;-73
2024/01/06 05:03:49;;;;;;;0.90;0.90;;;;;;;1.71;86.92;96364.78;4970478;28;20089;-73
2024/01/06 05:06:17;;;;;;;1.08;1.08;;;;;;;1.78;87.08;96365.72;4966146;28;20053;-74
2024/01/06 05:08:45;;;;;;;1.00;1.00;;;;;;;1.81;86.74;96373.28;4979510;28;20046;-74
2024/01/06 05:11:13;;;;;;;0.93;0.93;;;;;;;1.89;86.59;96372.44;4960917;28;20520;-75
2024/01/06 05:13:41;;;;;;;0.98;0.98;;;;;;;1.94;86.60;96372.75;4975948;28;20039;-74
2024/01/06 05:16:09;;;;;;;0.95;0.95;;;;;;;1.88;86.94;96374.22;4962549;28;20494;-75
2024/01/06 05:18:37;;;;;;;0.95;0.95;;;;;;;1.92;87.13;96377.34;4961881;28;20506;-74
2024/01/06 05:21:05;;;;;;;0.43;0.43;;;;;;;2.04;86.32;96374.19;4974900;23;20512;-72
2024/01/06 05:23:32;;;;;;;0.80;0.80;;;;;;;2.02;86.42;96370.06;4972958;28;20046;-74
2024/01/06 05:26:00;;;;;;;0.85;0.85;;;;;;;2.01;86.26;96373.69;4973857;28;20047;-71
2024/01/06 05:28:27;;;;;;;1.23;1.23;;;;;;;2.10;85.69;96375.28;4968274;28;20047;-71
2024/01/06 05:30:55;;;;;;;0.88;0.88;;;;;;;1.98;86.33;96376.66;4972402;28;20122;-71
2024/01/06 05:33:24;;;;;;;1.00;1.00;;;;;;;1.91;86.72;96376.53;4980096;28;20054;-72
2024/01/06 05:35:52;;;;;;;0.95;0.95;;;;;;;1.89;87.23;96373.25;4968338;28;20054;-71
2024/01/06 05:38:19;;;;;;;0.75;0.75;;;;;;;1.97;86.91;96381.13;4957863;28;20070;-71
2024/01/06 05:40:47;;;;;;;0.93;0.93;;;;;;;1.97;87.10;96382.94;4966544;28;20053;-72
2024/01/06 05:43:15;;;;;;;1.02;1.02;;;;;;;1.99;87.26;96380.94;4975565;28;20053;-72
2024/01/06 05:45:43;;;;;;;0.73;0.73;;;;;;;1.98;87.27;96379.28;4967278;28;20047;-73
2024/01/06 05:48:11;;;;;;;1.00;1.00;;;;;;;2.06;87.02;96385.34;4968551;28;20046;-72
2024/01/06 05:50:41;;;;;;;0.73;0.73;;;;;;;2.10;86.84;96388.44;4948319;28;20050;-72
2024/01/06 05:53:09;;;;;;;0.30;0.30;;;;;;;2.08;86.63;96385.16;4967946;28;20400;-72
2024/01/06 05:55:36;;;;;;;0.82;0.82;;;;;;;2.10;86.47;96383.19;4983598;28;20039;-71
2024/01/06 05:58:04;;;;;;;0.32;0.32;;;;;;;2.02;86.41;96389.31;4970477;28;20421;-72
2024/01/06 06:00:32;;;;;;;0.90;0.90;;;;;;;2.07;86.35;96399.34;4979701;28;20046;-74
2024/01/06 06:02:59;;;;;;;1.00;1.00;;;;;;;2.10;86.67;96391.91;4971305;28;20057;-73
2024/01/06 06:05:27;;;;;;;1.13;1.13;;;;;;;2.21;86.02;96394.16;4976616;28;20061;-72
2024/01/06 06:07:56;;;;;;;1.00;1.00;;;;;;;2.12;86.35;96394.34;4970903;28;20050;-71
2024/01/06 06:10:23;;;;;;;0.80;0.80;;;;;;;2.08;86.64;96404.41;4962097;28;20045;-71
2024/01/06 06:12:51;;;;;;;0.90;0.90;;;;;;;2.00;86.80;96403.63;4966136;28;20047;-72
2024/01/06 06:15:19;;;;;;;0.90;0.90;;;;;;;2.08;86.72;96406.22;4968362;28;20517;-73
2024/01/06 06:17:46;;;;;;;1.00;1.00;;;;;;;2.04;86.91;96408.38;4969702;28;20043;-72
2024/01/06 06:20:14;;;;;;;1.08;1.08;;;;;;;2.12;86.28;96415.41;4975947;28;20482;-72
2024/01/06 06:22:42;;;;;;;0.90;0.90;;;;;;;2.16;85.34;96414.91;4963426;28;20109;-75
2024/01/06 06:25:10;;;;;;;0.85;0.85;;;;;;;1.83;87.46;96419.47;4972239;28;20496;-72
2024/01/06 06:27:39;;;;;;;1.05;1.05;;;;;;;1.80;88.40;96427.69;4971055;28;20050;-72
2024/01/06 06:30:08;;;;;;;1.23;1.23;;;;;;;1.73;89.05;96432.00;4962944;28;20126;-73
2024/01/06 06:32:36;;;;;;;1.13;1.13;;;;;;;1.83;88.54;96440.53;4971323;28;20101;-73
2024/01/06 06:35:05;;;;;;;0.98;0.98;;;;;;;1.86;88.85;96449.06;4971377;28;20055;-72
2024/01/06 06:37:32;;;;;;;1.17;1.17;;;;;;;1.83;88.59;96442.31;4970004;28;20035;-72
2024/01/06 06:40:00;;;;;;;0.98;0.98;;;;;;;1.89;87.65;96448.72;4958716;28;20142;-72
2024/01/06 06:42:29;;;;;;;0.82;0.82;;;;;;;2.01;86.40;96455.25;4973934;28;20046;-72
2024/01/06 06:44:56;;;;;;;1.30;1.30;;;;;;;1.86;86.92;96464.84;4976110;28;20058;-73
2024/01/06 06:47:24;;;;;;;1.13;1.13;;;;;;;1.88;87.46;96468.94;4967015;28;20039;-71
2024/01/06 06:49:51;;;;;;;0.75;0.75;;;;;;;1.82;87.35;96473.06;4970698;28;20054;-73
2024/01/06 06:52:19;;;;;;;0.80;0.80;;;;;;;1.72;87.28;96475.06;4975528;28;20070;-73
2024/01/06 06:54:48;;;;;;;0.82;0.82;;;;;;;1.68;87.60;96470.28;4975849;28;20039;-73
2024/01/06 06:57:16;;;;;;;0.80;0.80;;;;;;;1.71;87.77;96476.03;4966518;28;20035;-73
2024/01/06 06:59:45;;;;;;;0.85;0.85;;;;;;;1.77;87.57;96477.16;4968585;28;20050;-72
2024/01/06 07:02:13;;;;;;;0.20;0.20;;;;;;;1.82;87.50;96480.97;4972343;28;20400;-73
2024/01/06 07:04:40;;;;;;;0.88;0.88;;;;;;;1.93;87.29;96489.47;4972496;28;20051;-72
2024/01/06 07:07:08;;;;;;;0.88;0.88;;;;;;;1.95;86.73;96493.59;4969607;28;20065;-71
2024/01/06 07:09:35;;;;;;;1.35;1.35;;;;;;;2.01;86.73;96497.34;4981585;28;20118;-71
2024/01/06 07:12:03;;;;;;;0.95;0.95;;;;;;;1.70;86.24;96498.06;4972722;28;20046;-72
2024/01/06 07:14:31;;;;;;;1.15;1.15;;;;;;;1.47;87.02;96499.72;4962562;28;20054;-73
2024/01/06 07:17:00;;;;;;;0.90;0.90;;;;;;;1.35;87.31;96506.31;4963714;28;20039;-73
2024/01/06 07:19:27;;;;;;;1.08;1.08;;;;;;;1.31;87.98;96511.09;4970483;28;20050;-72
2024/01/06 07:21:55;;;;;;;1.05;1.05;;;;;;;1.27;88.08;96514.19;4973102;28;20125;-73
2024/01/06 07:24:23;;;;;;;0.95;0.95;;;;;;;1.24;89.16;96510.09;4964662;28;20057;-74
2024/01/06 07:26:51;;;;;;;0.77;0.77;;;;;;;1.30;89.81;96505.97;4979155;28;20119;-72
2024/01/06 07:29:18;;;;;;;1.42;1.42;;;;;;;1.36;88.93;96508.75;4974075;28;20051;-73
2024/01/06 07:31:47;;;;;;;0.90;0.90;;;;;;;1.43;88.20;96516.84;4968668;28;20053;-74
2024/01/06 07:34:16;;;;;;;0.90;0.90;;;;;;;1.45;88.02;96515.66;4982408;28;20046;-72
2024/01/06 07:36:44;;;;;;;0.80;0.80;;;;;;;1.51;88.20;96521.25;4967509;28;20102;-74
2024/01/06 07:39:12;;;;;;;0.85;0.85;;;;;;;1.53;87.82;96527.19;4985911;28;20078;-73
2024/01/06 07:41:39;;;;;;;1.52;1.52;;;;;;;1.61;88.11;96528.00;4976205;28;20054;-73
2024/01/06 07:44:07;;;;;;;0.28;0.28;;;;;;;1.63;87.90;96530.47;4981433;28;20408;-72
2024/01/06 07:46:36;;;;;;;1.00;1.00;;;;;;;1.68;88.86;96534.22;4967717;28;20043;-73
2024/01/06 07:49:04;;;;;;;1.15;1.15;;;;;;;1.75;88.29;96547.56;4959018;28;20102;-73
2024/01/06 07:51:34;;;;;;;1.02;1.02;;;;;;;1.75;88.09;96543.13;4964503;28;20050;-73
2024/01/06 07:54:02;;;;;;;0.70;0.70;;;;;;;1.88;87.99;96549.66;4976174;28;20126;-72
2024/01/06 07:56:30;;;;;;;0.73;0.73;;;;;;;1.93;87.43;96556.06;4965131;28;20043;-72
2024/01/06 07:58:57;;;;;;;0.85;0.85;;;;;;;2.01;86.96;96552.59;4971181;28;20050;-73
2024/01/06 08:01:25;;;;;;;1.05;1.05;;;;;;;1.88;85.70;96552.28;4963183;28;20075;-72
2024/01/06 08:03:52;;;;;;;1.20;1.20;;;;;;;1.81;86.04;96552.13;4968173;28;20579;-73
2024/01/06 08:06:20;;;;;;;0.43;0.43;;;;;;;1.68;86.62;96559.69;4974233;28;20399;-73
2024/01/06 08:08:49;;;;;;;1.70;1.70;;;;;;;1.76;86.73;96568.44;4964674;28;20505;-72
2024/01/06 08:11:17;;;;;;;0.90;0.90;;;;;;;1.76;86.69;96562.34;4970110;28;20548;-72
2024/01/06 08:13:44;;;;;;;0.93;0.93;;;;;;;1.70;86.70;96563.81;4972046;28;20039;-72
2024/01/06 08:16:12;;;;;;;1.02;1.02;;;;;;;1.78;86.59;96578.75;4968575;28;20498;-72
2024/01/06 08:18:39;;;;;;;1.23;1.23;;;;;;;1.88;86.36;96584.66;4965216;28;20509;-72
2024/01/06 08:21:07;;;;;;;1.15;1.15;;;;;;;1.82;86.41;96583.53;4964509;28;20050;-72
2024/01/06 08:23:35;;;;;;;0.70;0.70;;;;;;;1.86;86.92;96584.03;4967794;28;20126;-72
2024/01/06 08:26:04;;;;;;;0.93;0.93;;;;;;;1.92;87.30;96586.00;4965945;28;20046;-74
2024/01/06 08:28:32;;;;;;;0.93;0.93;;;;;;;2.03;87.24;96584.84;4962031;28;20566;-72
2024/01/06 08:30:59;;;;;;;0.90;0.90;;;;;;;2.07;87.08;96584.34;4963860;28;20047;-72
2024/01/06 08:33:27;;;;;;;1.48;1.48;;;;;;;2.11;87.34;96584.81;4971511;28;20126;-75
2024/01/06 08:35:55;;;;;;;0.82;0.82;;;;;;;2.23;87.17;96578.22;4973865;28;20105;-73
2024/01/06 08:38:23;;;;;;;0.30;0.30;;;;;;;2.29;86.59;96587.25;4976744;28;20617;-72
2024/01/06 08:40:51;;;;;;;0.20;0.20;;;;;;;2.27;85.78;96584.81;4966427;28;20039;-72
2024/01/06 08:43:20;;;;;;;0.95;0.95;;;;;;;2.19;86.22;96590.06;4970389;28;20090;-73
2024/01/06 08:45:48;;;;;;;1.10;1.10;;;;;;;2.24;86.58;96594.84;4977496;28;20043;-72
2024/01/06 08:48:18;;;;;;;0.88;0.88;;;;;;;2.29;86.47;96592.50;4982106;28;20073;-72
2024/01/06 08:50:46;;;;;;;0.90;0.90;;;;;;;2.33;86.46;96588.56;4976099;28;20513;-74
2024/01/06 08:53:14;;;;;;;1.15;1.15;;;;;;;2.36;86.58;96594.31;4972109;28;20057;-72
2024/01/06 08:55:42;;;;;;;0.43;0.43;;;;;;;2.49;86.25;96585.91;4974618;28;20074;-72
2024/01/06 08:58:13;;;;;;;1.40;1.40;;;;;;;2.56;85.96;96582.41;4969293;28;20054;-73
2024/01/06 09:00:42;;;;;;;1.15;1.15;;;;;;;2.63;85.79;96589.63;4957717;28;20553;-72
2024/01/06 09:03:12;;;;;;;0.80;0.80;;;;;;;2.58;85.42;96585.69;4974948;28;20050;-72
2024/01/06 09:05:39;;;;;;;0.77;0.77;;;;;;;2.44;85.82;96594.28;4979902;28;20070;-75
2024/01/06 09:08:07;;;;;;;1.27;1.27;;;;;;;2.37;85.89;96588.06;4971750;28;20292;-72
2024/01/06 09:10:36;;;;;;;0.80;0.80;;;;;;;2.39;86.19;96593.97;4967188;28;20050;-72
2024/01/06 09:13:04;;;;;;;0.85;0.85;;;;;;;2.43;85.89;96595.28;4971224;28;20133;-72
2024/01/06 09:15:32;;;;;;;0.95;0.95;;;;;;;2.52;85.75;96589.00;4972595;28;20047;-72
2024/01/06 09:18:01;;;;;;;0.98;0.98;;;;;;;2.59;86.14;96597.06;4955086;28;20043;-74
2024/01/06 09:20:28;;;;;;;0.93;0.93;;;;;;;2.75;86.16;96602.25;4972272;28;20053;-71
2024/01/06 09:22:56;;;;;;;2.25;2.15;;;;;;;2.88;85.98;96596.44;4971064;28;20053;-72
2024/01/06 09:25:24;;;;;;;0.73;0.73;;;;;;;2.98;85.43;96604.97;4978749;28;20042;-73
2024/01/06 09:27:53;;;;;;;0.73;0.73;;;;;;;2.99;85.42;96608.41;4976264;28;20070;-72
2024/01/06 09:30:20;;;;;;;1.02;1.02;;;;;;;3.00;85.38;96610.88;4968538;28;20043;-72
2024/01/06 09:32:48;;;;;;;1.02;1.02;;;;;;;3.04;85.34;96627.97;4956567;28;20141;-72
2024/01/06 09:35:17;;;;;;;0.30;0.30;;;;;;;3.10;85.33;96627.31;4963828;28;20474;-73
2024/01/06 09:37:45;;;;;;;1.23;1.23;;;;;;;3.13;85.11;96626.94;4979525;28;20050;-72
2024/01/06 09:40:14;;;;;;;0.77;0.77;;;;;;;3.16;85.09;96631.88;4979157;28;20043;-72
2024/01/06 09:42:41;;;;;;;0.80;0.80;;;;;;;3.18;85.37;96622.00;4968899;28;20047;-72
2024/01/06 09:45:09;;;;;;;1.05;1.05;;;;;;;3.25;85.21;96630.84;4972373;28;20042;-73
2024/01/06 09:47:37;;;;;;;0.80;0.80;;;;;;;3.33;85.11;96622.88;4977824;28;20038;-72
2024/01/06 09:50:09;;;;;;;0.90;0.90;;;;;;;3.42;85.10;96626.31;4972107;28;20521;-72
2024/01/06 09:52:41;;;;;;;1.02;1.02;;;;;;;3.48;84.85;96630.06;4965787;28;20039;-74
2024/01/06 09:55:11;;;;;;;0.90;0.90;;;;;;;3.50;84.60;96626.25;4987074;28;20048;-74
2024/01/06 09:57:39;;;;;;;0.88;0.88;;;;;;;3.49;84.67;96627.25;4959136;28;20043;-75
2024/01/06 10:00:09;;;;;;;0.93;0.93;;;;;;;3.51;84.46;96629.72;4972584;28;20047;-73
2024/01/06 10:02:40;;;;;;;1.13;1.13;;;;;;;3.52;84.57;96623.47;4960657;28;20521;-72
2024/01/06 10:05:08;;;;;;;1.00;1.00;;;;;;;3.58;84.44;96625.38;4989249;28;20050;-72
2024/01/06 10:07:37;;;;;;;0.80;0.80;;;;;;;3.58;84.55;96623.56;4969557;28;20059;-72
2024/01/06 10:10:08;;;;;;;0.85;0.85;;;;;;;3.60;84.37;96624.22;4963499;28;20055;-74
2024/01/06 10:12:38;;;;;;;0.43;0.43;;;;;;;3.61;84.31;96627.69;4953749;28;20492;-72
2024/01/06 10:15:06;;;;;;;0.95;0.95;;;;;;;3.63;84.41;96623.06;4969880;28;20090;-73
2024/01/06 10:17:34;;;;;;;0.80;0.80;;;;;;;3.66;84.38;96626.16;4966002;28;20050;-73
2024/01/06 10:20:02;;;;;;;0.73;0.73;;;;;;;3.64;84.12;96620.22;4961617;28;20075;-73
2024/01/06 10:22:30;;;;;;;0.82;0.82;;;;;;;3.66;84.27;96627.97;4970577;28;20125;-72
2024/01/06 10:25:00;;;;;;;0.57;0.57;;;;;;;3.69;84.23;96625.81;4965668;28;20551;-72
2024/01/06 10:27:28;;;;;;;0.60;0.60;;;;;;;3.68;84.04;96625.97;4977277;28;20045;-72
2024/01/06 10:29:56;;;;;;;0.77;0.77;;;;;;;3.72;84.20;96618.53;4964519;28;20076;-72
2024/01/06 10:32:28;;;;;;;1.05;1.05;;;;;;;3.77;84.17;96616.19;4966345;28;20043;-73
2024/01/06 10:34:56;;;;;;;1.17;1.17;;;;;;;3.79;83.93;96622.09;4979757;28;20046;-72
2024/01/06 10:37:24;;;;;;;1.02;1.02;;;;;;;3.80;83.67;96624.56;4979100;28;20047;-73
2024/01/06 10:40:07;;;;;;;0.85;0.85;;;;;;;3.78;83.94;96618.63;4967679;28;20061;-74
2024/01/06 10:42:37;;;;;;;0.95;0.95;;;;;;;3.84;83.76;96620.56;4976457;28;20101;-73
2024/01/06 10:45:07;;;;;;;1.20;1.20;;;;;;;3.86;83.78;96615.13;4954765;28;20057;-73
2024/01/06 10:47:36;;;;;;;0.80;0.80;;;;;;;3.84;83.43;96614.50;4957117;28;20068;-72
2024/01/06 10:50:04;;;;;;;0.82;0.82;;;;;;;3.90;83.54;96613.78;4974561;28;20043;-72
2024/01/06 10:52:32;;;;;;;0.88;0.88;;;;;;;3.94;83.49;96621.19;4967247;28;20128;-72
2024/01/06 10:55:00;;;;;;;0.65;0.65;;;;;;;3.96;83.23;96624.44;4968980;28;20153;-73
2024/01/06 10:57:31;;;;;;;0.98;0.98;;;;;;;3.95;83.44;96622.78;4968236;28;20047;-74
2024/01/06 11:00:00;;;;;;;0.68;0.68;;;;;;;3.99;82.97;96613.53;4965679;28;20047;-72
2024/01/06 11:02:28;;;;;;;0.60;0.60;;;;;;;3.94;82.95;96618.53;4966031;28;20045;-71
2024/01/06 11:04:55;;;;;;;0.85;0.85;;;;;;;4.00;83.19;96614.34;4970340;28;20066;-72
2024/01/06 11:07:25;;;;;;;0.93;0.93;;;;;;;4.00;83.52;96617.81;4979312;28;20505;-71
2024/01/06 11:09:57;;;;;;;0.85;0.85;;;;;;;4.07;83.20;96618.72;4979873;28;20043;-73
2024/01/06 11:12:26;;;;;;;0.77;0.77;;;;;;;4.08;83.64;96616.91;4970555;28;20047;-72
2024/01/06 11:14:55;;;;;;;1.10;1.10;;;;;;;4.06;83.07;96618.91;4978338;28;20046;-72
2024/01/06 11:17:49;;;;;;;0.90;0.90;;;;;;;4.11;83.33;96623.66;4969094;28;20048;-72
2024/01/06 11:20:19;;;;;;;1.10;1.10;;;;;;;4.12;82.86;96625.31;4976593;23;20050;31
2024/01/06 11:22:46;;;;;;;0.85;0.85;;;;;;;4.16;82.88;96624.75;4948888;28;20078;-73
2024/01/06 11:25:15;;;;;;;1.00;1.00;;;;;;;4.23;82.81;96619.59;4952199;29;20035;-73
2024/01/06 11:27:44;;;;;;;0.90;0.90;;;;;;;4.29;82.34;96621.50;4948437;28;20142;-73
2024/01/06 11:30:22;;;;;;;1.95;1.95;;;;;;;4.29;82.33;96621.50;4953873;28;20098;-73
2024/01/06 11:32:52;;;;;;;0.70;0.70;;;;;;;4.30;82.20;96620.50;4927249;29;20047;-73
2024/01/06 11:35:21;;;;;;;0.77;0.77;;;;;;;4.29;82.11;96617.06;4932196;29;20578;-73
2024/01/06 11:37:54;;;;;;;0.85;0.85;;;;;;;4.32;82.54;96619.34;4933376;29;20122;-73
2024/01/06 11:40:32;;;;;;;1.15;1.15;;;;;;;4.33;82.33;96620.16;4935805;29;20046;-72
2024/01/06 11:43:05;;;;;;;0.82;0.82;;;;;;;4.25;82.33;96615.78;4937276;29;20044;-74
2024/01/06 11:45:35;;;;;;;1.05;1.05;;;;;;;4.26;82.69;96608.66;4937210;29;20063;-72